Effera — FGQE — position and weather

sailwx.info

Track history (hours):
 
Tides and Currents Weather Stations Pressure Air Temp Water Temp Dewpoint Dewpoint Depression Visibility Wind Speed Wind Dir Waves Ship Positions

Effera

Last reported at 2017-Nov-16 02:56 UTC. Time now 2017-Nov-24 11:20 UTC.
Position N 48°53' W 005°54'.
Warning: this ship's position is 8 days out of date.

Length 24 m.

Type: Fishing. MMSI: 227391000.

Date/timePositionNaut miles runAvg speedWind from/ knotsBaromVisibWave heightAir tempDewpointWater temp
2017-Nov-16 02:56N 48°53' W 005°54'8 8.1
2017-Nov-16 01:56N 48°46' W 005°47'6 9.1
2017-Nov-16 01:16N 48°41' W 005°43'510.0
2017-Nov-16 00:44N 48°38' W 005°37'9 9.5
2017-Nov-15 23:49N 48°31' W 005°28'3 9.6
2017-Nov-15 23:30N 48°29' W 005°25'5 9.4
2017-Nov-15 22:59N 48°25' W 005°20'5 9.1
2017-Nov-15 22:29N 48°23' W 005°14'4 8.9
2017-Nov-15 22:00N 48°20' W 005°09'5 9.1
2017-Nov-15 21:29N 48°18' W 005°03'4 9.0
2017-Nov-15 21:00N 48°15' W 004°58'5 9.1
2017-Nov-15 20:31N 48°12' W 004°52'5 9.5
2017-Nov-15 20:00N 48°10' W 004°46'5 9.6
2017-Nov-15 19:31N 48°08' W 004°40'5 9.6
2017-Nov-15 19:01N 48°08' W 004°33'5 9.8
2017-Nov-15 18:30N 48°08' W 004°25'4 9.0
2017-Nov-15 18:00N 48°06' W 004°19'0 1.0
2017-Nov-15 17:30N 48°06' W 004°20'0 0.0
2017-Nov-15 17:01N 48°06' W 004°20'0 0.0
2017-Nov-15 16:31N 48°06' W 004°20'0 0.0
2017-Nov-15 16:01N 48°06' W 004°20'0 0.0
2017-Nov-15 15:30N 48°06' W 004°20'0 0.0
2017-Nov-15 15:00N 48°06' W 004°20'0 0.0
2017-Nov-15 14:31N 48°06' W 004°20'0 0.0
2017-Nov-15 14:01N 48°06' W 004°20'0 0.0
2017-Nov-15 13:30N 48°06' W 004°20'0 0.0
2017-Nov-15 13:00N 48°06' W 004°20'0 0.0
2017-Nov-15 12:31N 48°06' W 004°20'0 0.0
2017-Nov-15 12:00N 48°06' W 004°20'0 0.0
2017-Nov-15 11:30N 48°06' W 004°20'0 0.0
2017-Nov-15 11:01N 48°06' W 004°20'0 0.0
2017-Nov-15 10:31N 48°06' W 004°20'0 0.0
2017-Nov-15 10:00N 48°06' W 004°20'0 0.0
2017-Nov-15 09:31N 48°06' W 004°20'0 0.0
2017-Nov-15 09:01N 48°06' W 004°20'0 0.0
2017-Nov-15 08:31N 48°06' W 004°20'0 0.0
2017-Nov-15 08:00N 48°06' W 004°20'0 0.0
2017-Nov-15 07:31N 48°06' W 004°20'0 0.0
2017-Nov-15 07:00N 48°06' W 004°19'4 7.3
2017-Nov-15 06:30N 48°08' W 004°24'5 9.4
2017-Nov-15 06:00N 48°07' W 004°31'4 8.6
2017-Nov-15 05:31N 48°08' W 004°38'4 8.2
2017-Nov-15 05:00N 48°09' W 004°44'4 8.1
2017-Nov-15 04:31N 48°11' W 004°49'4 7.8
2017-Nov-15 04:01N 48°13' W 004°54'4 7.7
2017-Nov-15 03:31N 48°15' W 004°59'4 7.9
2017-Nov-15 02:59N 48°17' W 005°04'5 7.7
2017-Nov-15 02:16N 48°20' W 005°12'2 7.5
2017-Nov-15 01:59N 48°21' W 005°14'4 7.3
2017-Nov-15 01:30N 48°22' W 005°19'4 7.4
2017-Nov-15 01:00N 48°24' W 005°24'4 7.5
2017-Nov-15 00:30N 48°26' W 005°29'4 7.3
2017-Nov-14 23:53N 48°28' W 005°35'27 6.1
2017-Nov-14 19:28N 48°44' W 006°08'6 3.4
2017-Nov-14 17:52N 48°48' W 006°03'3 3.5
2017-Nov-14 17:07N 48°50' W 006°02'1 3.7
2017-Nov-14 16:47N 48°51' W 006°01'1 2.4
2017-Nov-14 16:18N 48°53' W 006°01'2 3.3
2017-Nov-14 15:48N 48°54' W 006°00'1 3.1
2017-Nov-14 15:23N 48°55' W 005°60'1 3.1
2017-Nov-14 14:59N 48°57' W 005°59'1 3.0
2017-Nov-14 14:30N 48°58' W 005°59'2 2.8
2017-Nov-14 13:47N 48°60' W 005°58'1 2.7
2017-Nov-14 13:28N 49°01' W 005°58'1 2.4
2017-Nov-14 12:58N 49°01' W 005°56'2 3.1
2017-Nov-14 12:16N 49°01' W 005°59'1 3.4
2017-Nov-14 11:55N 49°01' W 006°01'1 3.4
2017-Nov-14 11:30N 49°01' W 006°03'2 3.4
2017-Nov-14 10:54N 49°00' W 006°06'2 3.4
2017-Nov-14 10:22N 48°59' W 006°08'2 3.3
2017-Nov-14 09:54N 48°57' W 006°08'5 3.1
2017-Nov-14 08:25N 48°53' W 006°05'  
Track history (hours):
 
Tides and Currents Weather Stations Pressure Air Temp Water Temp Dewpoint Dewpoint Depression Visibility Wind Speed Wind Dir Waves Ship Positions

Effera

Last reported at 2017-Nov-16 02:56 UTC. Time now 2017-Nov-24 11:20 UTC.
Position N 48°53' W 005°54'.
Warning: this ship's position is 8 days out of date.

Length 24 m.

Type: Fishing. MMSI: 227391000.

Date/timePositionNaut miles runAvg speedWind from/ knotsBaromVisibWave heightAir tempDewpointWater temp
2017-Nov-16 02:56N 48°53' W 005°54'8 8.1
2017-Nov-16 01:56N 48°46' W 005°47'6 9.1
2017-Nov-16 01:16N 48°41' W 005°43'510.0
2017-Nov-16 00:44N 48°38' W 005°37'9 9.5
2017-Nov-15 23:49N 48°31' W 005°28'3 9.6
2017-Nov-15 23:30N 48°29' W 005°25'5 9.4
2017-Nov-15 22:59N 48°25' W 005°20'5 9.1
2017-Nov-15 22:29N 48°23' W 005°14'4 8.9
2017-Nov-15 22:00N 48°20' W 005°09'5 9.1
2017-Nov-15 21:29N 48°18' W 005°03'4 9.0
2017-Nov-15 21:00N 48°15' W 004°58'5 9.1
2017-Nov-15 20:31N 48°12' W 004°52'5 9.5
2017-Nov-15 20:00N 48°10' W 004°46'5 9.6
2017-Nov-15 19:31N 48°08' W 004°40'5 9.6
2017-Nov-15 19:01N 48°08' W 004°33'5 9.8
2017-Nov-15 18:30N 48°08' W 004°25'4 9.0
2017-Nov-15 18:00N 48°06' W 004°19'0 1.0
2017-Nov-15 17:30N 48°06' W 004°20'0 0.0
2017-Nov-15 17:01N 48°06' W 004°20'0 0.0
2017-Nov-15 16:31N 48°06' W 004°20'0 0.0
2017-Nov-15 16:01N 48°06' W 004°20'0 0.0
2017-Nov-15 15:30N 48°06' W 004°20'0 0.0
2017-Nov-15 15:00N 48°06' W 004°20'0 0.0
2017-Nov-15 14:31N 48°06' W 004°20'0 0.0
2017-Nov-15 14:01N 48°06' W 004°20'0 0.0
2017-Nov-15 13:30N 48°06' W 004°20'0 0.0
2017-Nov-15 13:00N 48°06' W 004°20'0 0.0
2017-Nov-15 12:31N 48°06' W 004°20'0 0.0
2017-Nov-15 12:00N 48°06' W 004°20'0 0.0
2017-Nov-15 11:30N 48°06' W 004°20'0 0.0
2017-Nov-15 11:01N 48°06' W 004°20'0 0.0
2017-Nov-15 10:31N 48°06' W 004°20'0 0.0
2017-Nov-15 10:00N 48°06' W 004°20'0 0.0
2017-Nov-15 09:31N 48°06' W 004°20'0 0.0
2017-Nov-15 09:01N 48°06' W 004°20'0 0.0
2017-Nov-15 08:31N 48°06' W 004°20'0 0.0
2017-Nov-15 08:00N 48°06' W 004°20'0 0.0
2017-Nov-15 07:31N 48°06' W 004°20'0 0.0
2017-Nov-15 07:00N 48°06' W 004°19'4 7.3
2017-Nov-15 06:30N 48°08' W 004°24'5 9.4
2017-Nov-15 06:00N 48°07' W 004°31'4 8.6
2017-Nov-15 05:31N 48°08' W 004°38'4 8.2
2017-Nov-15 05:00N 48°09' W 004°44'4 8.1
2017-Nov-15 04:31N 48°11' W 004°49'4 7.8
2017-Nov-15 04:01N 48°13' W 004°54'4 7.7
2017-Nov-15 03:31N 48°15' W 004°59'4 7.9
2017-Nov-15 02:59N 48°17' W 005°04'5 7.7
2017-Nov-15 02:16N 48°20' W 005°12'2 7.5
2017-Nov-15 01:59N 48°21' W 005°14'4 7.3
2017-Nov-15 01:30N 48°22' W 005°19'4 7.4
2017-Nov-15 01:00N 48°24' W 005°24'4 7.5
2017-Nov-15 00:30N 48°26' W 005°29'4 7.3
2017-Nov-14 23:53N 48°28' W 005°35'27 6.1
2017-Nov-14 19:28N 48°44' W 006°08'6 3.4
2017-Nov-14 17:52N 48°48' W 006°03'3 3.5
2017-Nov-14 17:07N 48°50' W 006°02'1 3.7
2017-Nov-14 16:47N 48°51' W 006°01'1 2.4
2017-Nov-14 16:18N 48°53' W 006°01'2 3.3
2017-Nov-14 15:48N 48°54' W 006°00'1 3.1
2017-Nov-14 15:23N 48°55' W 005°60'1 3.1
2017-Nov-14 14:59N 48°57' W 005°59'1 3.0
2017-Nov-14 14:30N 48°58' W 005°59'2 2.8
2017-Nov-14 13:47N 48°60' W 005°58'1 2.7
2017-Nov-14 13:28N 49°01' W 005°58'1 2.4
2017-Nov-14 12:58N 49°01' W 005°56'2 3.1
2017-Nov-14 12:16N 49°01' W 005°59'1 3.4
2017-Nov-14 11:55N 49°01' W 006°01'1 3.4
2017-Nov-14 11:30N 49°01' W 006°03'2 3.4
2017-Nov-14 10:54N 49°00' W 006°06'2 3.4
2017-Nov-14 10:22N 48°59' W 006°08'2 3.3
2017-Nov-14 09:54N 48°57' W 006°08'5 3.1
2017-Nov-14 08:25N 48°53' W 006°05'  

Dump ship's entire track history